Time;durP1;ratioP1;P1;durP2;ratioP2;P2;SDS_P1;SDS_P2;PMS_P1;PMS_P2;Temp;Humidity;BMP_temperature;BMP_pressure;BME280_temperature;BME280_humidity;BME280_pressure;Samples;Min_cycle;Max_cycle;Signal;HPM_P1;HPM_P2
2022/05/31 00:04:53;;;;;;;0.60;0.50;;;18.30;60.30;;;;;;10415191;28;20056;-48
2022/05/31 00:09:54;;;;;;;2.00;0.93;;;18.30;60.30;;;;;;10415942;28;20037;-48
2022/05/31 00:14:54;;;;;;;1.45;0.63;;;18.30;60.30;;;;;;10416009;28;20129;-47
2022/05/31 00:19:55;;;;;;;1.60;1.10;;;18.30;60.30;;;;;;10416307;28;20033;-49
2022/05/31 00:24:56;;;;;;;1.42;0.70;;;18.30;60.30;;;;;;10415627;28;20033;-49
2022/05/31 00:29:56;;;;;;;1.23;0.60;;;18.20;60.30;;;;;;10415158;28;20113;-48
2022/05/31 00:35:03;;;;;;;1.70;0.93;;;18.20;60.20;;;;;;10415091;28;20045;-49
2022/05/31 00:40:05;;;;;;;2.30;0.93;;;18.30;60.20;;;;;;10401682;28;20053;-48
2022/05/31 00:45:06;;;;;;;2.60;0.70;;;18.20;60.20;;;;;;10415082;28;20470;-50
2022/05/31 00:50:34;;;;;;;5.95;1.00;;;18.20;60.20;;;;;;10414309;28;20390;-50
2022/05/31 00:55:52;;;;;;;1.65;0.95;;;18.20;60.20;;;;;;10430199;28;20597;-48
2022/05/31 01:00:53;;;;;;;1.80;0.90;;;18.20;60.20;;;;;;10414629;28;20036;-48
2022/05/31 01:05:54;;;;;;;1.30;0.60;;;18.20;60.30;;;;;;10414223;28;20029;-51
2022/05/31 01:10:55;;;;;;;1.13;0.63;;;18.20;60.20;;;;;;10412642;28;20115;-48
2022/05/31 01:16:10;;;;;;;0.93;0.60;;;18.20;60.20;;;;;;10400715;28;20030;-50
2022/05/31 01:21:11;;;;;;;1.63;0.57;;;18.20;60.20;;;;;;10406217;28;20057;-50
2022/05/31 01:26:15;;;;;;;2.08;0.93;;;18.20;60.20;;;;;;10413523;28;20036;-47
2022/05/31 01:31:34;;;;;;;0.70;0.50;;;18.20;60.20;;;;;;10413385;28;20040;-47
2022/05/31 01:36:55;;;;;;;1.88;0.52;;;18.10;60.10;;;;;;10412043;28;20107;-48
2022/05/31 01:42:32;;;;;;;1.73;0.65;;;18.10;60.10;;;;;;10400629;28;20037;-48
2022/05/31 01:47:36;;;;;;;1.20;0.85;;;18.10;60.10;;;;;;10427931;28;20414;-48
2022/05/31 01:52:38;;;;;;;2.25;0.60;;;18.10;60.10;;;;;;10411836;28;20481;-50
2022/05/31 01:57:42;;;;;;;1.30;0.65;;;18.10;60.10;;;;;;10411668;28;20029;-49
2022/05/31 02:02:52;;;;;;;1.67;0.60;;;18.10;60.00;;;;;;10415679;28;20466;-48
2022/05/31 02:08:04;;;;;;;1.33;0.60;;;18.10;60.10;;;;;;10421328;28;20401;-50
2022/05/31 02:13:05;;;;;;;0.77;0.57;;;18.10;60.00;;;;;;10407781;28;20534;-48
2022/05/31 02:18:06;;;;;;;1.38;0.70;;;18.10;60.10;;;;;;10421897;28;20033;-48
2022/05/31 02:23:07;;;;;;;1.10;0.60;;;18.10;60.10;;;;;;10435594;28;20048;-48
2022/05/31 02:28:07;;;;;;;2.03;0.95;;;18.10;60.00;;;;;;10420129;28;20112;-49
2022/05/31 02:33:08;;;;;;;1.52;0.82;;;18.00;60.00;;;;;;10419746;28;20049;-49
2022/05/31 02:38:10;;;;;;;2.22;0.63;;;18.00;59.90;;;;;;10418423;28;20029;-49
2022/05/31 02:43:10;;;;;;;1.33;0.77;;;18.10;60.10;;;;;;10419993;28;20438;-48
2022/05/31 02:48:11;;;;;;;0.70;0.60;;;18.00;60.00;;;;;;10419115;28;20061;-48
2022/05/31 02:53:12;;;;;;;1.23;0.65;;;18.10;60.10;;;;;;10419394;28;20421;-48
2022/05/31 02:58:13;;;;;;;0.80;0.68;;;18.00;60.00;;;;;;10419288;28;20500;-47
2022/05/31 03:03:14;;;;;;;1.35;0.50;;;18.00;60.00;;;;;;10419249;28;20351;-48
2022/05/31 03:08:15;;;;;;;1.08;0.60;;;18.00;60.00;;;;;;10419043;28;20061;-47
2022/05/31 03:13:20;;;;;;;1.17;0.60;;;18.00;60.00;;;;;;10404446;28;20072;-52
2022/05/31 03:18:25;;;;;;;1.27;0.68;;;18.00;60.00;;;;;;10419582;28;20060;-48
2022/05/31 03:23:43;;;;;;;0.80;0.80;;;18.00;60.10;;;;;;10417852;28;20037;-50
2022/05/31 03:28:44;;;;;;;1.02;0.60;;;18.00;60.00;;;;;;10414501;28;20083;-48
2022/05/31 03:33:45;;;;;;;1.88;0.63;;;18.00;60.10;;;;;;10430946;28;20095;-51
2022/05/31 03:38:45;;;;;;;1.20;1.02;;;17.90;60.00;;;;;;10417365;28;20060;-49
2022/05/31 03:43:46;;;;;;;0.95;0.65;;;17.90;60.00;;;;;;10417555;28;20041;-47
2022/05/31 03:48:47;;;;;;;1.30;0.80;;;17.90;60.00;;;;;;10417158;28;20029;-51
2022/05/31 03:53:47;;;;;;;1.83;0.80;;;17.90;60.00;;;;;;10417229;28;20113;-48
2022/05/31 03:58:48;;;;;;;0.60;0.50;;;17.90;60.00;;;;;;10416994;28;20045;-48
2022/05/31 04:03:49;;;;;;;1.23;0.60;;;17.90;60.00;;;;;;10414429;28;20498;-47
2022/05/31 04:08:49;;;;;;;1.02;0.50;;;17.90;60.00;;;;;;10412495;28;20052;-48
2022/05/31 04:13:50;;;;;;;1.73;0.82;;;17.90;60.00;;;;;;10415784;28;20171;-49
2022/05/31 04:18:51;;;;;;;1.27;0.68;;;17.90;60.00;;;;;;10416906;28;20048;-49
2022/05/31 04:23:58;;;;;;;0.82;0.77;;;17.90;60.00;;;;;;10415380;28;20069;-48
2022/05/31 04:28:59;;;;;;;1.70;0.77;;;17.90;60.00;;;;;;10414172;28;20068;-47
2022/05/31 04:33:59;;;;;;;0.68;0.45;;;17.90;60.00;;;;;;10412589;28;20045;-49
2022/05/31 04:39:01;;;;;;;0.60;0.47;;;17.90;60.10;;;;;;10414489;28;20116;-48
2022/05/31 04:44:04;;;;;;;1.88;0.60;;;17.90;60.00;;;;;;10409272;28;20112;-48
2022/05/31 04:49:05;;;;;;;5.68;1.23;;;17.90;60.00;;;;;;10401010;28;20207;-49
2022/05/31 04:54:06;;;;;;;3.70;1.10;;;17.80;60.40;;;;;;10414779;28;20112;-45
2022/05/31 04:59:07;;;;;;;3.22;1.02;;;17.90;60.50;;;;;;10413658;28;20034;-46
2022/05/31 05:04:08;;;;;;;2.28;0.82;;;17.90;61.00;;;;;;10413874;28;20142;-45
2022/05/31 05:09:08;;;;;;;9.43;1.63;;;17.90;61.00;;;;;;10413649;28;20072;-50
2022/05/31 05:14:09;;;;;;;8.10;3.30;;;18.10;61.20;;;;;;10400389;28;20167;-47
2022/05/31 05:19:10;;;;;;;3.33;1.40;;;18.10;61.80;;;;;;10414798;28;20029;-50
2022/05/31 05:24:10;;;;;;;5.85;1.05;;;18.00;62.20;;;;;;10412799;28;20036;-45
2022/05/31 05:34:30;;;;;;;18.30;1.67;;;18.00;62.10;;;;;;10412447;28;20132;-47
2022/05/31 05:39:30;;;;;;;14.57;2.45;;;18.00;61.60;;;;;;10411944;28;20061;-47
2022/05/31 05:44:31;;;;;;;6.45;1.60;;;17.90;61.80;;;;;;10412019;28;20120;-48
2022/05/31 05:49:32;;;;;;;8.95;1.70;;;17.90;61.60;;;;;;10412227;28;20117;-50
2022/05/31 05:54:33;;;;;;;12.65;2.88;;;17.90;61.90;;;;;;10412968;28;20460;-54
2022/05/31 05:59:33;;;;;;;13.60;3.40;;;17.90;61.70;;;;;;10410984;28;20437;-51
2022/05/31 06:05:08;;;;;;;22.17;4.93;;;17.80;61.80;;;;;;10410629;28;20094;-53
2022/05/31 06:10:19;;;;;;;14.65;3.53;;;17.90;61.90;;;;;;10409773;28;20090;-51
2022/05/31 06:15:25;;;;;;;15.40;4.60;;;17.80;62.00;;;;;;10410267;28;20389;-51
2022/05/31 06:20:29;;;;;;;12.55;2.67;;;17.90;62.00;;;;;;10417951;28;20034;-49
2022/05/31 06:25:29;;;;;;;13.75;2.67;;;17.90;61.70;;;;;;10411869;28;20382;-49
2022/05/31 06:30:30;;;;;;;9.60;2.38;;;17.90;61.70;;;;;;10410937;28;20113;-52
2022/05/31 06:35:31;;;;;;;10.13;2.47;;;17.90;61.60;;;;;;10410223;28;20099;-49
2022/05/31 06:40:32;;;;;;;16.10;3.00;;;17.80;61.60;;;;;;10408676;28;20479;-51
2022/05/31 06:45:34;;;;;;;19.70;2.47;;;17.80;61.60;;;;;;10410586;28;20084;-48
2022/05/31 06:50:34;;;;;;;7.03;2.33;;;17.80;61.60;;;;;;10414703;28;20444;-51
2022/05/31 07:00:56;;;;;;;12.27;2.45;;;17.80;61.60;;;;;;10417762;28;20029;-50
2022/05/31 07:05:59;;;;;;;14.82;2.88;;;17.80;62.20;;;;;;10408546;28;21094;-51
2022/05/31 07:11:01;;;;;;;8.68;2.67;;;17.80;61.50;;;;;;10416625;28;20041;-47
2022/05/31 07:16:02;;;;;;;9.48;2.40;;;17.80;61.90;;;;;;10406343;28;20390;-51
2022/05/31 07:21:02;;;;;;;10.65;2.45;;;17.80;62.00;;;;;;10414366;28;20033;-51
2022/05/31 07:26:04;;;;;;;9.52;2.47;;;17.80;62.30;;;;;;10417029;28;20087;-50
2022/05/31 07:31:07;;;;;;;8.70;2.20;;;17.80;62.50;;;;;;10416552;28;20044;-48
2022/05/31 07:36:08;;;;;;;7.32;1.90;;;17.80;62.50;;;;;;10416670;28;20045;-51
2022/05/31 07:41:09;;;;;;;5.07;2.30;;;17.80;62.60;;;;;;10415395;28;20033;-48
2022/05/31 07:46:13;;;;;;;6.20;2.17;;;17.80;62.60;;;;;;10416932;28;20075;-49
2022/05/31 07:51:14;;;;;;;7.35;2.42;;;17.80;62.40;;;;;;10416656;28;20730;-48
2022/05/31 07:56:14;;;;;;;8.63;3.25;;;17.80;62.20;;;;;;10414669;28;20078;-49
2022/05/31 08:01:22;;;;;;;7.85;2.38;;;17.90;62.40;;;;;;10413076;28;20158;-47
2022/05/31 08:06:28;;;;;;;8.15;2.20;;;17.90;62.40;;;;;;10416184;28;20076;-48
2022/05/31 08:11:32;;;;;;;3.83;1.67;;;17.80;62.20;;;;;;10410154;28;20030;-48
2022/05/31 08:16:34;;;;;;;6.55;1.88;;;17.80;62.20;;;;;;10407438;28;20021;-46
2022/05/31 08:21:35;;;;;;;8.10;2.15;;;17.90;62.20;;;;;;10416981;28;20493;-46
2022/05/31 08:26:37;;;;;;;5.35;3.25;;;17.90;62.30;;;;;;10415207;28;20108;-49
2022/05/31 08:31:37;;;;;;;6.07;1.52;;;17.80;62.10;;;;;;10414410;28;20025;-48
2022/05/31 08:36:38;;;;;;;7.95;1.80;;;17.80;62.20;;;;;;10413081;28;20144;-48
2022/05/31 08:41:48;;;;;;;4.63;1.92;;;17.80;62.20;;;;;;10417412;28;20129;-46
2022/05/31 08:47:04;;;;;;;6.57;2.05;;;17.80;62.30;;;;;;10413815;28;20405;-47
2022/05/31 08:52:17;;;;;;;5.25;1.60;;;17.90;62.30;;;;;;10412027;28;20358;-50
2022/05/31 08:57:45;;;;;;;4.38;1.90;;;17.80;62.20;;;;;;10409872;28;20041;-46
2022/05/31 09:03:01;;;;;;;3.50;1.50;;;17.80;62.20;;;;;;10412153;28;20029;-48
2022/05/31 09:08:33;;;;;;;3.20;2.08;;;17.80;62.30;;;;;;10412212;28;20508;-46
2022/05/31 09:14:11;;;;;;;4.03;1.70;;;17.90;62.30;;;;;;10398504;28;20026;-48
2022/05/31 09:19:23;;;;;;;4.97;1.95;;;17.90;62.30;;;;;;10413505;28;20038;-47
2022/05/31 09:24:24;;;;;;;3.33;1.77;;;17.90;62.30;;;;;;10419067;28;20037;-49
2022/05/31 09:29:52;;;;;;;6.97;2.13;;;18.00;62.30;;;;;;10417767;28;20577;-48
2022/05/31 09:35:26;;;;;;;4.88;2.47;;;17.90;62.30;;;;;;10407293;28;20121;-47
2022/05/31 09:40:48;;;;;;;4.32;2.10;;;17.90;62.20;;;;;;10405009;28;20125;-51
2022/05/31 09:46:30;;;;;;;4.90;2.00;;;17.90;62.20;;;;;;10410886;28;20508;-47
2022/05/31 09:51:49;;;;;;;5.15;1.58;;;18.00;62.30;;;;;;10408770;28;20080;-49
2022/05/31 09:57:07;;;;;;;4.03;1.77;;;18.00;62.40;;;;;;10411528;28;20033;-50
2022/05/31 10:02:26;;;;;;;4.78;2.20;;;18.00;62.20;;;;;;10424954;28;20037;-47
2022/05/31 10:07:34;;;;;;;4.25;2.53;;;17.90;61.90;;;;;;10408456;28;20029;-47
2022/05/31 10:12:36;;;;;;;4.47;3.15;;;17.90;61.60;;;;;;10408206;28;20037;-50
2022/05/31 10:17:42;;;;;;;3.17;2.60;;;18.00;60.90;;;;;;10416771;28;20025;-48
2022/05/31 10:22:56;;;;;;;4.30;2.70;;;18.00;60.50;;;;;;10409400;28;20378;-47
2022/05/31 10:28:12;;;;;;;3.80;3.00;;;18.00;60.20;;;;;;10416356;28;20461;-47
2022/05/31 10:33:23;;;;;;;4.00;2.92;;;18.00;59.80;;;;;;10417967;28;20030;-47
2022/05/31 10:38:30;;;;;;;7.13;2.80;;;18.10;59.50;;;;;;10417350;28;20048;-49
2022/05/31 10:43:43;;;;;;;5.07;3.30;;;18.10;59.60;;;;;;10415889;28;20025;-47
2022/05/31 10:48:49;;;;;;;5.00;2.55;;;18.10;59.50;;;;;;10414714;28;20033;-46
2022/05/31 10:54:08;;;;;;;4.72;2.90;;;18.10;59.80;;;;;;10433382;28;20026;-47
2022/05/31 10:59:28;;;;;;;4.90;2.72;;;18.20;60.00;;;;;;10416952;28;20183;-48
2022/05/31 11:05:00;;;;;;;3.65;2.65;;;18.20;60.10;;;;;;10433442;28;20025;-47
2022/05/31 11:16:07;;;;;;;4.32;2.50;;;18.30;60.20;;;;;;10404988;28;20460;-47
2022/05/31 11:21:29;;;;;;;4.15;2.72;;;18.30;60.20;;;;;;10419253;28;20607;-47
2022/05/31 11:26:36;;;;;;;3.20;1.95;;;18.30;60.20;;;;;;10417034;28;20043;-48
2022/05/31 11:32:11;;;;;;;4.63;2.50;;;18.30;60.30;;;;;;10416858;28;20037;-47
2022/05/31 11:37:44;;;;;;;3.85;2.30;;;18.30;60.40;;;;;;10421966;28;20041;-46
2022/05/31 11:43:18;;;;;;;3.35;2.17;;;18.30;60.70;;;;;;10415476;28;20040;-47
2022/05/31 11:48:51;;;;;;;4.45;2.13;;;18.30;60.70;;;;;;10415682;28;20034;-50
2022/05/31 11:54:41;;;;;;;3.88;2.28;;;18.40;60.80;;;;;;10408391;28;20598;-47
2022/05/31 11:59:51;;;;;;;3.95;1.98;;;18.40;60.80;;;;;;10407437;28;20124;-47
2022/05/31 12:04:59;;;;;;;3.78;2.13;;;18.30;60.90;;;;;;10417286;28;20119;-47
2022/05/31 12:10:25;;;;;;;4.00;2.25;;;18.30;61.10;;;;;;10430002;28;20124;-47
2022/05/31 12:15:33;;;;;;;8.35;2.92;;;18.30;61.10;;;;;;10391787;28;20037;-46
2022/05/31 12:20:56;;;;;;;11.40;3.35;;;18.50;68.40;;;;;;10426275;28;20493;-47
2022/05/31 12:25:59;;;;;;;12.65;3.38;;;18.70;65.00;;;;;;10411995;28;20126;-49
2022/05/31 12:31:19;;;;;;;12.48;4.75;;;18.70;62.00;;;;;;10393997;28;20072;-47
2022/05/31 12:36:24;;;;;;;13.30;3.90;;;18.60;61.20;;;;;;10413400;28;20080;-47
2022/05/31 12:41:43;;;;;;;10.85;3.78;;;18.60;60.80;;;;;;10414445;28;20037;-46
2022/05/31 12:46:47;;;;;;;7.38;2.65;;;18.50;60.20;;;;;;10413542;28;20567;-49
2022/05/31 12:52:21;;;;;;;14.52;4.10;;;18.50;59.70;;;;;;10402645;28;20080;-48
2022/05/31 12:58:26;;;;;;;8.07;3.05;;;18.40;58.90;;;;;;10413876;28;20180;-46
2022/05/31 13:02:53;;;;;;;15.75;3.30;;;18.40;59.40;;;;;;10412612;28;20417;-48
2022/05/31 13:08:16;;;;;;;6.68;2.70;;;18.40;59.50;;;;;;10412702;28;20436;-49
2022/05/31 13:24:17;;;;;;;9.70;3.67;;;18.40;58.70;;;;;;10412990;28;20553;-47
2022/05/31 13:29:23;;;;;;;5.47;2.65;;;18.30;58.20;;;;;;10411326;28;20287;-51
2022/05/31 13:34:43;;;;;;;6.03;2.63;;;18.30;57.90;;;;;;10411384;28;20453;-48
2022/05/31 13:39:47;;;;;;;5.75;2.70;;;18.30;57.10;;;;;;10409959;28;20040;-47
2022/05/31 13:44:49;;;;;;;5.28;2.40;;;18.30;56.80;;;;;;10410545;28;20091;-49
2022/05/31 13:49:50;;;;;;;8.40;3.00;;;18.30;57.20;;;;;;10411613;28;20448;-50
2022/05/31 13:55:12;;;;;;;6.60;2.28;;;18.30;57.10;;;;;;10409949;28;20029;-50
2022/05/31 14:00:14;;;;;;;8.18;2.83;;;18.20;56.80;;;;;;10417369;28;20033;-48
2022/05/31 14:05:32;;;;;;;4.63;2.42;;;18.20;56.30;;;;;;10424204;28;20077;-48
2022/05/31 14:10:48;;;;;;;22.30;4.53;;;18.20;56.50;;;;;;10426688;28;20486;-47
2022/05/31 14:15:50;;;;;;;18.38;3.97;;;18.20;56.00;;;;;;10423152;28;20056;-51
2022/05/31 14:20:51;;;;;;;10.60;4.45;;;18.20;56.60;;;;;;10430661;28;20034;-47
2022/05/31 14:25:53;;;;;;;11.68;4.07;;;18.20;56.70;;;;;;10424466;28;20037;-48
2022/05/31 14:31:02;;;;;;;9.40;3.65;;;18.20;57.20;;;;;;10424209;28;20033;-46
2022/05/31 14:36:04;;;;;;;9.95;3.55;;;18.20;56.70;;;;;;10422050;28;20072;-47
2022/05/31 14:41:14;;;;;;;12.30;3.58;;;18.20;56.60;;;;;;10414704;28;20029;-47
2022/05/31 14:46:35;;;;;;;13.57;3.33;;;18.20;57.00;;;;;;10423063;28;20033;-46
2022/05/31 14:51:40;;;;;;;10.15;4.30;;;18.20;57.90;;;;;;10421893;28;20041;-47
2022/05/31 14:56:42;;;;;;;9.70;3.17;;;18.30;58.20;;;;;;10406086;28;20065;-48
2022/05/31 15:01:47;;;;;;;8.80;3.20;;;18.30;58.30;;;;;;10421870;28;20037;-49
2022/05/31 15:07:11;;;;;;;13.55;3.92;;;18.30;58.60;;;;;;10427774;28;20049;-48
2022/05/31 15:23:04;;;;;;;13.00;3.42;;;18.40;59.60;;;;;;10417670;28;20041;-51
2022/05/31 15:28:05;;;;;;;13.18;4.07;;;18.30;59.40;;;;;;10417030;28;20044;-46
2022/05/31 15:33:06;;;;;;;15.48;3.55;;;18.30;60.00;;;;;;10414329;28;20033;-49
2022/05/31 15:38:18;;;;;;;20.35;4.82;;;18.30;60.10;;;;;;10414054;28;20095;-51
2022/05/31 15:48:38;;;;;;;14.75;3.75;;;18.20;60.30;;;;;;10410686;28;20049;-47
2022/05/31 15:53:38;;;;;;;17.65;4.72;;;18.20;60.30;;;;;;10416163;28;20029;-48
2022/05/31 15:58:40;;;;;;;11.18;3.92;;;18.20;60.40;;;;;;10416625;28;20367;-46
2022/05/31 16:03:40;;;;;;;10.38;3.58;;;18.20;60.50;;;;;;10416045;28;20381;-47
2022/05/31 16:08:41;;;;;;;8.32;2.80;;;18.20;60.50;;;;;;10407086;28;20036;-47
2022/05/31 16:13:42;;;;;;;21.50;4.65;;;18.30;60.60;;;;;;10412770;28;20082;-46
2022/05/31 16:18:43;;;;;;;12.93;4.80;;;18.30;60.50;;;;;;10415182;28;20414;-49
2022/05/31 16:23:47;;;;;;;17.00;5.63;;;18.30;60.60;;;;;;10413704;28;20128;-51
2022/05/31 16:28:48;;;;;;;9.05;4.40;;;18.50;61.40;;;;;;10414076;28;20045;-50
2022/05/31 16:33:48;;;;;;;12.98;4.65;;;18.50;61.10;;;;;;10414280;28;20042;-48
2022/05/31 16:44:08;;;;;;;19.40;5.20;;;18.60;60.80;;;;;;10412371;28;20501;-55
2022/05/31 16:49:09;;;;;;;9.82;4.32;;;18.40;60.70;;;;;;10413178;28;20100;-53
2022/05/31 16:54:16;;;;;;;9.07;4.80;;;18.40;60.50;;;;;;10414077;28;20029;-46
2022/05/31 16:59:17;;;;;;;33.13;7.10;;;18.30;60.50;;;;;;10414132;28;20533;-49
2022/05/31 17:04:18;;;;;;;11.23;4.80;;;18.30;60.20;;;;;;10413108;28;20049;-51
2022/05/31 17:14:46;;;;;;;20.42;4.78;;;18.30;60.30;;;;;;10407659;28;20042;-51
2022/05/31 17:19:47;;;;;;;16.20;5.05;;;18.30;60.30;;;;;;10413670;28;20478;-47
2022/05/31 17:24:48;;;;;;;15.93;4.75;;;18.30;60.70;;;;;;10412588;28;20064;-50
2022/05/31 17:29:48;;;;;;;11.38;4.68;;;18.30;61.00;;;;;;10412006;28;20025;-52
2022/05/31 17:34:49;;;;;;;21.48;5.72;;;18.30;61.30;;;;;;10402735;28;20056;-49
2022/05/31 17:39:50;;;;;;;18.65;11.32;;;18.30;61.60;;;;;;10409415;28;20092;-51
2022/05/31 17:44:50;;;;;;;12.98;7.95;;;18.30;63.40;;;;;;10410784;28;20753;-49
2022/05/31 17:49:51;;;;;;;19.15;7.50;;;18.50;62.80;;;;;;10409221;28;20037;-46
2022/05/31 17:54:52;;;;;;;17.88;7.03;;;18.40;62.30;;;;;;10410545;28;20121;-46
2022/05/31 17:59:52;;;;;;;17.77;7.57;;;18.40;62.90;;;;;;10411104;28;20025;-48
2022/05/31 18:04:53;;;;;;;15.45;6.88;;;18.40;62.80;;;;;;10411551;28;20116;-53
2022/05/31 18:09:56;;;;;;;11.82;6.78;;;18.40;62.70;;;;;;10412293;28;20111;-52
2022/05/31 18:14:57;;;;;;;12.73;6.55;;;18.40;62.90;;;;;;10410876;28;20029;-53
2022/05/31 18:19:57;;;;;;;14.65;6.63;;;18.40;62.80;;;;;;10413884;28;20032;-52
2022/05/31 18:25:01;;;;;;;12.55;6.65;;;18.30;62.80;;;;;;10410469;28;20109;-51
2022/05/31 18:30:03;;;;;;;9.02;5.35;;;18.30;62.80;;;;;;10394367;28;20037;-52
2022/05/31 18:35:08;;;;;;;16.38;5.95;;;18.30;62.70;;;;;;10409119;28;20037;-50
2022/05/31 18:40:34;;;;;;;14.93;5.80;;;18.30;62.80;;;;;;10410981;28;20069;-48
2022/05/31 18:45:35;;;;;;;12.93;5.20;;;18.30;62.90;;;;;;10411236;28;20040;-52
2022/05/31 18:50:36;;;;;;;9.80;4.88;;;18.30;62.80;;;;;;10416746;28;20040;-53
2022/05/31 18:55:38;;;;;;;10.98;4.82;;;18.30;62.90;;;;;;10416769;28;20037;-52
2022/05/31 19:00:39;;;;;;;8.65;5.07;;;18.30;63.00;;;;;;10413039;28;20017;-52
2022/05/31 19:05:40;;;;;;;7.13;4.75;;;18.30;63.50;;;;;;10422518;28;20029;-54
2022/05/31 19:10:43;;;;;;;11.05;4.93;;;18.40;63.80;;;;;;10416413;28;20498;-52
2022/05/31 19:15:47;;;;;;;9.82;4.20;;;18.40;63.50;;;;;;10403190;28;20057;-53
2022/05/31 19:20:48;;;;;;;9.38;4.00;;;18.40;63.60;;;;;;10419265;28;20082;-55
2022/05/31 19:25:48;;;;;;;10.25;4.07;;;18.40;63.80;;;;;;10416555;28;20033;-49
2022/05/31 19:30:50;;;;;;;14.05;4.22;;;18.40;63.30;;;;;;10416595;28;20508;-47
2022/05/31 19:35:54;;;;;;;11.23;4.20;;;18.40;63.20;;;;;;10416513;28;20038;-50
2022/05/31 19:40:56;;;;;;;7.63;3.20;;;18.30;63.20;;;;;;10412485;28;20025;-47
2022/05/31 19:45:57;;;;;;;10.10;3.53;;;18.30;63.30;;;;;;10417206;28;20116;-48
2022/05/31 19:50:58;;;;;;;10.75;3.95;;;18.30;63.30;;;;;;10416310;28;20025;-48
2022/05/31 19:55:59;;;;;;;8.95;3.95;;;18.30;63.40;;;;;;10431050;28;20463;-48
2022/05/31 20:01:00;;;;;;;8.40;3.22;;;18.30;63.30;;;;;;10416120;28;20037;-51
2022/05/31 20:06:02;;;;;;;10.68;4.18;;;18.30;63.50;;;;;;10400166;28;20038;-49
2022/05/31 20:11:03;;;;;;;10.20;3.95;;;18.30;63.50;;;;;;10415220;28;20036;-49
2022/05/31 20:16:04;;;;;;;6.38;2.83;;;18.30;63.30;;;;;;10416118;28;20440;-47
2022/05/31 20:21:09;;;;;;;5.30;2.92;;;18.30;63.30;;;;;;10415405;28;20478;-48
2022/05/31 20:26:10;;;;;;;4.97;2.78;;;18.30;63.30;;;;;;10413734;28;20033;-50
2022/05/31 20:31:11;;;;;;;4.53;2.45;;;18.30;63.30;;;;;;10414562;28;20026;-48
2022/05/31 20:36:12;;;;;;;5.68;2.70;;;18.30;63.20;;;;;;10413327;28;20080;-49
2022/05/31 20:41:17;;;;;;;8.43;2.72;;;18.30;63.20;;;;;;10414419;28;20033;-47
2022/05/31 20:46:19;;;;;;;5.38;2.55;;;18.20;63.10;;;;;;10414180;28;20029;-48
2022/05/31 20:51:19;;;;;;;4.72;2.40;;;18.20;63.10;;;;;;10412224;28;20034;-51
2022/05/31 20:56:20;;;;;;;8.52;3.20;;;18.20;63.00;;;;;;10414372;28;20082;-50
2022/05/31 21:01:22;;;;;;;3.80;2.40;;;18.20;63.00;;;;;;10414615;28;20025;-50
2022/05/31 21:06:28;;;;;;;4.15;2.40;;;18.30;63.00;;;;;;10405514;28;20082;-51
2022/05/31 21:11:29;;;;;;;4.53;2.63;;;18.20;62.90;;;;;;10428909;28;20048;-48
2022/05/31 21:16:30;;;;;;;2.90;1.90;;;18.30;62.80;;;;;;10412114;28;20039;-49
2022/05/31 21:21:33;;;;;;;6.35;2.28;;;18.20;62.80;;;;;;10415068;28;20029;-47
2022/05/31 21:26:36;;;;;;;4.07;2.67;;;18.20;62.80;;;;;;10428384;28;20382;-47
2022/05/31 21:31:38;;;;;;;3.33;2.10;;;18.20;62.80;;;;;;10419854;28;20391;-47
2022/05/31 21:36:40;;;;;;;4.05;2.75;;;18.20;62.80;;;;;;10412804;28;20034;-47
2022/05/31 21:41:41;;;;;;;3.95;2.20;;;18.20;62.70;;;;;;10428275;28;20361;-51
2022/05/31 21:46:42;;;;;;;4.47;2.22;;;18.20;62.70;;;;;;10412165;28;20033;-50
2022/05/31 21:51:43;;;;;;;4.15;2.25;;;18.20;62.70;;;;;;10412625;28;20155;-49
2022/05/31 21:56:45;;;;;;;4.32;2.55;;;18.20;62.70;;;;;;10412698;28;20034;-48
2022/05/31 22:01:46;;;;;;;3.75;2.10;;;18.20;62.80;;;;;;10411608;28;20038;-51
2022/05/31 22:06:48;;;;;;;5.38;2.53;;;18.20;62.70;;;;;;10412065;28;20466;-48
2022/05/31 22:11:52;;;;;;;5.60;2.35;;;18.20;62.70;;;;;;10412154;28;20041;-48
2022/05/31 22:16:53;;;;;;;3.67;2.40;;;18.20;62.70;;;;;;10406525;28;20053;-47
2022/05/31 22:21:53;;;;;;;3.97;2.25;;;18.20;62.70;;;;;;10418507;28;20489;-49
2022/05/31 22:26:54;;;;;;;2.60;1.60;;;18.20;62.60;;;;;;10420338;28;20038;-50
2022/05/31 22:31:55;;;;;;;3.92;2.50;;;18.20;62.70;;;;;;10427212;28;20034;-50
2022/05/31 22:36:56;;;;;;;2.58;1.80;;;18.20;62.60;;;;;;10419743;28;20051;-48
2022/05/31 22:41:57;;;;;;;3.10;2.17;;;18.20;62.60;;;;;;10419736;28;20171;-50
2022/05/31 22:46:57;;;;;;;3.05;2.15;;;18.20;62.60;;;;;;10418234;28;20490;-49
2022/05/31 22:51:58;;;;;;;2.15;1.60;;;18.20;62.60;;;;;;10419527;28;20037;-51
2022/05/31 22:56:59;;;;;;;3.53;1.80;;;18.20;62.60;;;;;;10419256;28;20033;-48
2022/05/31 23:02:01;;;;;;;4.57;1.73;;;18.20;62.60;;;;;;10418753;28;20049;-47
2022/05/31 23:07:03;;;;;;;2.17;1.73;;;18.20;62.60;;;;;;10417069;28;20037;-49
2022/05/31 23:12:05;;;;;;;3.40;1.85;;;18.20;63.20;;;;;;10418484;28;20378;-47
2022/05/31 23:17:07;;;;;;;2.50;1.77;;;18.20;62.60;;;;;;10418461;28;20014;-47
2022/05/31 23:27:28;;;;;;;2.05;1.50;;;18.20;62.60;;;;;;10417745;28;20053;-48
2022/05/31 23:32:30;;;;;;;3.03;2.58;;;18.10;62.50;;;;;;10416783;28;20089;-51
2022/05/31 23:37:31;;;;;;;2.28;1.95;;;18.10;62.60;;;;;;10432975;28;20069;-48
2022/05/31 23:42:31;;;;;;;2.47;1.83;;;18.10;62.50;;;;;;10417170;28;20109;-47
2022/05/31 23:47:32;;;;;;;3.60;1.40;;;18.10;62.50;;;;;;10416227;28;20112;-48
2022/05/31 23:52:33;;;;;;;3.05;1.63;;;18.10;62.50;;;;;;10416844;28;20021;-48
2022/05/31 23:57:33;;;;;;;2.22;1.73;;;18.10;62.50;;;;;;10417111;28;20105;-46
